Time;durP1;ratioP1;P1;durP2;ratioP2;P2;SDS_P1;SDS_P2;PMS_P1;PMS_P2;Temp;Humidity;BMP_temperature;BMP_pressure;BME280_temperature;BME280_humidity;BME280_pressure;Samples;Min_cycle;Max_cycle;Signal;HPM_P1;HPM_P2
2023/06/30 00:00:11;;;;;;;5.65;4.93;;;;;;;;;;5108684;28;20404;-63
2023/06/30 00:02:42;;;;;;;5.88;5.03;;;;;;;;;;5115102;28;20052;-62
2023/06/30 00:05:10;;;;;;;5.45;4.40;;;;;;;;;;5115169;28;20384;-62
2023/06/30 00:07:37;;;;;;;5.45;3.83;;;;;;;;;;5114611;28;20047;-63
2023/06/30 00:10:06;;;;;;;4.28;3.60;;;;;;;;;;5114812;28;20423;-62
2023/06/30 00:12:32;;;;;;;4.40;3.53;;;;;;;;;;5114648;28;20416;-62
2023/06/30 00:14:59;;;;;;;4.15;3.45;;;;;;;;;;5106259;28;20062;-62
2023/06/30 00:17:26;;;;;;;4.60;4.00;;;;;;;;;;5113761;28;20503;-62
2023/06/30 00:19:59;;;;;;;6.60;3.85;;;;;;;;;;5114841;28;20051;-63
2023/06/30 00:22:27;;;;;;;4.53;3.50;;;;;;;;;;5114671;28;20056;-62
2023/06/30 00:24:55;;;;;;;4.43;3.58;;;;;;;;;;5114159;28;20055;-63
2023/06/30 00:27:21;;;;;;;5.05;3.40;;;;;;;;;;5114241;28;20055;-63
2023/06/30 00:29:48;;;;;;;4.88;3.78;;;;;;;;;;5109237;28;20063;-63
2023/06/30 00:32:17;;;;;;;5.78;3.67;;;;;;;;;;5114155;28;20489;-62
2023/06/30 00:34:44;;;;;;;5.72;3.85;;;;;;;;;;5114631;28;20066;-63
2023/06/30 00:37:11;;;;;;;4.53;3.40;;;;;;;;;;5114526;28;20048;-62
2023/06/30 00:39:39;;;;;;;4.65;3.78;;;;;;;;;;5113457;28;20074;-63
2023/06/30 00:42:06;;;;;;;4.60;4.10;;;;;;;;;;5093367;28;20059;-61
2023/06/30 00:44:33;;;;;;;6.35;4.07;;;;;;;;;;5096035;28;20047;-63
2023/06/30 00:47:00;;;;;;;6.25;4.68;;;;;;;;;;5113876;28;20120;-63
2023/06/30 00:49:27;;;;;;;4.65;3.88;;;;;;;;;;5114365;28;20091;-63
2023/06/30 00:51:54;;;;;;;4.50;4.10;;;;;;;;;;5114295;28;20062;-63
2023/06/30 00:54:23;;;;;;;4.75;3.65;;;;;;;;;;5114081;28;20067;-63
2023/06/30 00:56:50;;;;;;;;;;;;;;;;;;5114297;28;20055;-63
2023/06/30 00:59:18;;;;;;;5.38;4.45;;;;;;;;;;5108928;28;20276;-63
2023/06/30 01:01:48;;;;;;;4.97;4.03;;;;;;;;;;5113711;28;20416;-63
2023/06/30 01:04:20;;;;;;;5.88;4.85;;;;;;;;;;5113830;28;20101;-63
2023/06/30 01:06:52;;;;;;;4.50;4.00;;;;;;;;;;5113879;28;20055;-63
2023/06/30 01:09:22;;;;;;;5.55;3.83;;;;;;;;;;5113265;28;20048;-63
2023/06/30 01:11:51;;;;;;;6.60;4.10;;;;;;;;;;5108875;28;20070;-62
2023/06/30 01:14:24;;;;;;;5.32;3.55;;;;;;;;;;5092467;28;20370;-62
2023/06/30 01:16:51;;;;;;;6.85;4.45;;;;;;;;;;5113279;28;20052;-63
2023/06/30 01:19:24;;;;;;;6.85;5.22;;;;;;;;;;5113528;28;20055;-62
2023/06/30 01:21:52;;;;;;;6.40;5.07;;;;;;;;;;5113432;28;20066;-62
2023/06/30 01:24:20;;;;;;;6.32;5.68;;;;;;;;;;5113063;28;20056;-62
2023/06/30 01:26:49;;;;;;;6.22;5.43;;;;;;;;;;5113758;28;20066;-60
2023/06/30 01:29:16;;;;;;;6.88;6.10;;;;;;;;;;5105810;28;20044;-61
2023/06/30 01:31:48;;;;;;;8.65;5.97;;;;;;;;;;5111656;28;20051;-61
2023/06/30 01:34:15;;;;;;;7.38;5.85;;;;;;;;;;5112698;28;20062;-61
2023/06/30 01:36:42;;;;;;;6.78;5.78;;;;;;;;;;5112995;28;20048;-61
2023/06/30 01:39:13;;;;;;;7.10;5.40;;;;;;;;;;5105160;28;20071;-62
2023/06/30 01:41:40;;;;;;;6.47;5.38;;;;;;;;;;5099870;28;20058;-61
2023/06/30 01:44:06;;;;;;;5.85;4.85;;;;;;;;;;5108641;28;20059;-61
2023/06/30 01:46:33;;;;;;;6.40;5.47;;;;;;;;;;5112927;28;20055;-61
2023/06/30 01:49:02;;;;;;;6.55;5.85;;;;;;;;;;5112980;28;20062;-62
2023/06/30 01:51:30;;;;;;;7.50;6.80;;;;;;;;;;5113033;28;20476;-61
2023/06/30 01:53:57;;;;;;;8.13;6.20;;;;;;;;;;5113110;28;20052;-63
2023/06/30 01:56:23;;;;;;;6.63;6.03;;;;;;;;;;5113364;28;20054;-63
2023/06/30 01:58:50;;;;;;;7.00;6.30;;;;;;;;;;5108425;28;21437;-64
2023/06/30 02:01:17;;;;;;;5.57;5.03;;;;;;;;;;5092329;28;20493;-63
2023/06/30 02:03:44;;;;;;;7.82;5.28;;;;;;;;;;5092468;28;20055;-63
2023/06/30 02:06:15;;;;;;;5.80;4.93;;;;;;;;;;5092214;28;20529;-62
2023/06/30 02:08:44;;;;;;;4.90;4.50;;;;;;;;;;5092286;28;20059;-63
2023/06/30 02:11:13;;;;;;;4.40;3.72;;;;;;;;;;5094205;28;20055;-63
2023/06/30 02:13:39;;;;;;;3.30;2.65;;;;;;;;;;5112926;28;20055;-63
2023/06/30 02:16:06;;;;;;;5.32;2.35;;;;;;;;;;5105255;28;20052;-62
2023/06/30 02:18:33;;;;;;;3.67;2.10;;;;;;;;;;5110613;28;20500;-62
2023/06/30 02:21:00;;;;;;;3.13;2.00;;;;;;;;;;5112189;28;20067;-63
2023/06/30 02:23:30;;;;;;;4.47;2.42;;;;;;;;;;5117001;28;20055;-62
2023/06/30 02:25:56;;;;;;;4.10;2.47;;;;;;;;;;5100487;28;20056;-64
2023/06/30 02:28:23;;;;;;;3.67;2.72;;;;;;;;;;5096221;28;20048;-63
2023/06/30 02:30:53;;;;;;;4.88;2.40;;;;;;;;;;5104270;28;20381;-62
2023/06/30 02:33:20;;;;;;;4.25;2.53;;;;;;;;;;5116674;28;20055;-63
2023/06/30 02:35:50;;;;;;;4.68;2.75;;;;;;;;;;5116427;28;20061;-63
2023/06/30 02:38:20;;;;;;;4.25;2.20;;;;;;;;;;5116622;28;20547;-63
2023/06/30 02:40:49;;;;;;;3.45;2.28;;;;;;;;;;5105552;28;20064;-62
2023/06/30 02:43:16;;;;;;;4.88;2.92;;;;;;;;;;5096517;28;20051;-63
2023/06/30 02:45:42;;;;;;;5.32;2.80;;;;;;;;;;5102756;28;20070;-64
2023/06/30 02:48:09;;;;;;;3.90;2.40;;;;;;;;;;5116091;28;20044;-63
2023/06/30 02:50:39;;;;;;;4.63;2.80;;;;;;;;;;5116585;28;20047;-63
2023/06/30 02:53:06;;;;;;;5.38;2.63;;;;;;;;;;5115758;28;20052;-63
2023/06/30 02:55:33;;;;;;;4.03;2.42;;;;;;;;;;5116160;28;20055;-63
2023/06/30 02:58:07;;;;;;;4.88;2.90;;;;;;;;;;5115787;28;20052;-63
2023/06/30 03:00:34;;;;;;;7.93;3.28;;;;;;;;;;5110573;28;20044;-63
2023/06/30 03:03:01;;;;;;;4.97;2.95;;;;;;;;;;5116274;28;20051;-63
2023/06/30 03:05:28;;;;;;;4.43;2.72;;;;;;;;;;5115983;28;20059;-62
2023/06/30 03:07:58;;;;;;;5.13;3.60;;;;;;;;;;5115731;28;20055;-62
2023/06/30 03:10:26;;;;;;;5.60;3.40;;;;;;;;;;5116160;28;20051;-63
2023/06/30 03:12:53;;;;;;;4.95;3.70;;;;;;;;;;5115559;28;20406;-63
2023/06/30 03:15:22;;;;;;;4.43;3.75;;;;;;;;;;5106320;28;20050;-63
2023/06/30 03:17:49;;;;;;;6.27;4.10;;;;;;;;;;5097357;28;20056;-63
2023/06/30 03:20:16;;;;;;;10.60;5.75;;;;;;;;;;5095694;28;20496;-62
2023/06/30 03:22:43;;;;;;;5.60;4.53;;;;;;;;;;5095554;28;20526;-63
2023/06/30 03:25:13;;;;;;;6.18;4.35;;;;;;;;;;5094924;28;20048;-63
2023/06/30 03:27:40;;;;;;;7.85;4.35;;;;;;;;;;5080041;28;20060;-63
2023/06/30 03:30:07;;;;;;;6.20;4.80;;;;;;;;;;5079858;28;20458;-62
2023/06/30 03:32:35;;;;;;;6.72;4.53;;;;;;;;;;5073956;28;20059;-63
2023/06/30 03:35:03;;;;;;;7.90;5.47;;;;;;;;;;5075166;28;20501;-61
2023/06/30 03:37:29;;;;;;;8.55;5.10;;;;;;;;;;5074848;28;20055;-61
2023/06/30 03:40:00;;;;;;;9.57;6.07;;;;;;;;;;5072484;28;20051;-61
2023/06/30 03:42:31;;;;;;;9.25;5.85;;;;;;;;;;5074477;28;20052;-61
2023/06/30 03:44:59;;;;;;;8.82;5.63;;;;;;;;;;5074629;28;20056;-61
2023/06/30 03:47:25;;;;;;;9.25;6.40;;;;;;;;;;5074699;28;20053;-61
2023/06/30 03:49:54;;;;;;;9.18;6.43;;;;;;;;;;5074805;28;20485;-61
2023/06/30 03:52:20;;;;;;;7.55;6.13;;;;;;;;;;5074673;28;20052;-61
2023/06/30 03:54:47;;;;;;;8.95;6.90;;;;;;;;;;5074802;28;20060;-61
2023/06/30 03:57:16;;;;;;;6.95;6.25;;;;;;;;;;5074501;28;20405;-61
2023/06/30 03:59:42;;;;;;;7.30;6.07;;;;;;;;;;5072378;28;20722;-61
2023/06/30 04:02:09;;;;;;;8.32;5.65;;;;;;;;;;5071584;28;20059;-61
2023/06/30 04:04:36;;;;;;;7.78;5.97;;;;;;;;;;5074494;28;20055;-61
2023/06/30 04:07:04;;;;;;;7.05;5.68;;;;;;;;;;5074767;28;20060;-62
2023/06/30 04:09:31;;;;;;;9.63;6.00;;;;;;;;;;5074552;28;20398;-62
2023/06/30 04:11:58;;;;;;;9.57;6.18;;;;;;;;;;5073852;28;20056;-63
2023/06/30 04:14:25;;;;;;;7.30;6.00;;;;;;;;;;5074175;28;20393;-63
2023/06/30 04:16:51;;;;;;;6.45;5.53;;;;;;;;;;5081943;28;20048;-63
2023/06/30 04:19:18;;;;;;;7.68;5.82;;;;;;;;;;5094195;28;20059;-62
2023/06/30 04:21:45;;;;;;;8.57;5.68;;;;;;;;;;5093806;28;20056;-62
2023/06/30 04:24:13;;;;;;;6.07;5.07;;;;;;;;;;5094057;28;20075;-61
2023/06/30 04:26:40;;;;;;;8.20;6.07;;;;;;;;;;5077695;28;20052;-62
2023/06/30 04:29:07;;;;;;;11.23;5.85;;;;;;;;;;5071846;28;20523;-63
2023/06/30 04:31:35;;;;;;;7.90;6.28;;;;;;;;;;5072210;28;20413;-62
2023/06/30 04:34:03;;;;;;;9.55;6.05;;;;;;;;;;5073919;28;20448;-63
2023/06/30 04:36:30;;;;;;;9.57;5.72;;;;;;;;;;5073794;28;20068;-63
2023/06/30 04:38:57;;;;;;;8.07;6.25;;;;;;;;;;5074846;28;20342;-64
2023/06/30 04:41:25;;;;;;;11.13;6.72;;;;;;;;;;5073501;28;20056;-63
2023/06/30 04:43:52;;;;;;;9.82;6.65;;;;;;;;;;5073179;28;20087;-63
2023/06/30 04:46:19;;;;;;;8.00;6.28;;;;;;;;;;5070992;28;20049;-63
2023/06/30 04:48:46;;;;;;;11.93;7.38;;;;;;;;;;5073318;28;20052;-63
2023/06/30 04:51:13;;;;;;;9.13;6.72;;;;;;;;;;5073439;28;20477;-63
2023/06/30 04:53:40;;;;;;;10.63;6.20;;;;;;;;;;5073354;28;20053;-63
2023/06/30 04:56:07;;;;;;;10.23;6.43;;;;;;;;;;5073038;28;20057;-64
2023/06/30 04:58:35;;;;;;;11.10;6.88;;;;;;;;;;5073213;28;20477;-63
2023/06/30 05:01:04;;;;;;;10.55;6.85;;;;;;;;;;5071756;28;20059;-61
2023/06/30 05:03:31;;;;;;;7.95;6.00;;;;;;;;;;5072553;28;20075;-62
2023/06/30 05:05:59;;;;;;;8.27;5.55;;;;;;;;;;5072687;28;20056;-62
2023/06/30 05:08:25;;;;;;;10.02;6.00;;;;;;;;;;5072778;28;20064;-61
2023/06/30 05:10:52;;;;;;;8.82;6.07;;;;;;;;;;5072714;28;20515;-62
2023/06/30 05:13:19;;;;;;;9.13;6.03;;;;;;;;;;5073051;28;20064;-62
2023/06/30 05:15:47;;;;;;;11.60;6.28;;;;;;;;;;5069519;28;20123;-63
2023/06/30 05:18:15;;;;;;;12.95;5.85;;;;;;;;;;5052723;28;20052;-63
2023/06/30 05:20:41;;;;;;;10.43;5.97;;;;;;;;;;5052777;28;20080;-62
2023/06/30 05:23:10;;;;;;;8.93;5.53;;;;;;;;;;5053061;28;20053;-63
2023/06/30 05:25:37;;;;;;;7.47;5.03;;;;;;;;;;5067393;28;20059;-61
2023/06/30 05:28:04;;;;;;;12.60;6.47;;;;;;;;;;5083796;28;20052;-61
2023/06/30 05:30:31;;;;;;;10.98;4.85;;;;;;;;;;5090890;28;20047;-62
2023/06/30 05:32:59;;;;;;;7.65;4.97;;;;;;;;;;5092002;28;20373;-61
2023/06/30 05:35:26;;;;;;;7.47;4.95;;;;;;;;;;5093101;28;20055;-61
2023/06/30 05:37:52;;;;;;;10.00;5.60;;;;;;;;;;5092652;28;20056;-60
2023/06/30 05:40:19;;;;;;;8.70;5.30;;;;;;;;;;5092554;28;20052;-60
2023/06/30 05:42:46;;;;;;;11.93;6.03;;;;;;;;;;5092390;28;20054;-60
2023/06/30 05:45:13;;;;;;;7.82;5.57;;;;;;;;;;5090032;28;20048;-60
2023/06/30 05:47:39;;;;;;;9.13;5.43;;;;;;;;;;5091944;28;20052;-60
2023/06/30 05:50:08;;;;;;;9.57;5.45;;;;;;;;;;5092102;28;20052;-61
2023/06/30 05:52:35;;;;;;;7.28;4.80;;;;;;;;;;5091794;28;20067;-61
2023/06/30 05:55:02;;;;;;;9.43;5.55;;;;;;;;;;5092379;28;20087;-61
2023/06/30 05:57:29;;;;;;;12.70;5.15;;;;;;;;;;5091913;28;20052;-61
2023/06/30 05:59:56;;;;;;;6.68;4.65;;;;;;;;;;5090555;28;20056;-61
2023/06/30 06:02:22;;;;;;;7.18;5.68;;;;;;;;;;5091694;28;20059;-61
2023/06/30 06:04:51;;;;;;;8.18;5.50;;;;;;;;;;5092613;28;20152;-61
2023/06/30 06:07:19;;;;;;;6.83;4.90;;;;;;;;;;5091872;28;20056;-60
2023/06/30 06:09:46;;;;;;;7.97;5.32;;;;;;;;;;5091853;28;20519;-61
2023/06/30 06:12:13;;;;;;;10.80;5.97;;;;;;;;;;5092027;28;20052;-61
2023/06/30 06:14:41;;;;;;;7.47;5.18;;;;;;;;;;5092006;28;20052;-61
2023/06/30 06:17:07;;;;;;;8.05;5.65;;;;;;;;;;5090734;28;20052;-61
2023/06/30 06:19:34;;;;;;;10.10;6.38;;;;;;;;;;5091850;28;20055;-61
2023/06/30 06:22:01;;;;;;;8.88;5.32;;;;;;;;;;5085720;28;20044;-62
2023/06/30 06:24:29;;;;;;;8.32;5.65;;;;;;;;;;5087818;28;20067;-61
2023/06/30 06:26:56;;;;;;;7.40;5.55;;;;;;;;;;5091366;28;20055;-60
2023/06/30 06:29:23;;;;;;;11.45;6.13;;;;;;;;;;5091117;28;20052;-60
2023/06/30 06:31:50;;;;;;;7.78;5.68;;;;;;;;;;5086070;28;20044;-62
2023/06/30 06:34:20;;;;;;;8.98;5.40;;;;;;;;;;5088021;28;20487;-41
2023/06/30 06:36:47;;;;;;;9.88;5.93;;;;;;;;;;5089299;28;20059;-41
2023/06/30 06:39:14;;;;;;;9.70;5.72;;;;;;;;;;5090899;28;20053;-40
2023/06/30 06:41:44;;;;;;;8.65;4.80;;;;;;;;;;5086821;28;20059;-40
2023/06/30 06:44:11;;;;;;;8.52;5.28;;;;;;;;;;5088056;28;20048;-41
2023/06/30 06:46:38;;;;;;;10.23;5.07;;;;;;;;;;5091872;28;20048;-40
2023/06/30 06:49:05;;;;;;;6.97;4.90;;;;;;;;;;5086426;28;20051;-41
2023/06/30 06:51:33;;;;;;;5.95;4.30;;;;;;;;;;5078054;28;20579;-41
2023/06/30 06:54:00;;;;;;;10.23;5.05;;;;;;;;;;5083491;28;20052;-40
2023/06/30 06:56:26;;;;;;;9.68;5.43;;;;;;;;;;5083017;28;20059;-41
2023/06/30 06:58:54;;;;;;;8.82;5.45;;;;;;;;;;5086066;28;20055;-41
2023/06/30 07:01:21;;;;;;;8.63;4.82;;;;;;;;;;5085571;28;20075;-42
2023/06/30 07:03:48;;;;;;;7.95;4.95;;;;;;;;;;5090081;28;20515;-41
2023/06/30 07:06:16;;;;;;;7.97;4.55;;;;;;;;;;5088062;28;20500;-41
2023/06/30 07:08:43;;;;;;;7.57;4.40;;;;;;;;;;5094216;28;20048;-41
2023/06/30 07:11:10;;;;;;;7.07;4.30;;;;;;;;;;5092450;28;20048;-41
2023/06/30 07:13:38;;;;;;;5.50;3.47;;;;;;;;;;5091861;28;20048;-41
2023/06/30 07:16:06;;;;;;;8.57;4.32;;;;;;;;;;5089240;28;20706;-41
2023/06/30 07:18:34;;;;;;;8.70;3.70;;;;;;;;;;5093365;28;20397;-41
2023/06/30 07:21:01;;;;;;;7.33;3.30;;;;;;;;;;5090962;28;20055;-41
2023/06/30 07:23:28;;;;;;;6.38;3.70;;;;;;;;;;5095323;28;20378;-41
2023/06/30 07:25:55;;;;;;;6.90;3.20;;;;;;;;;;5087494;28;20087;-63
2023/06/30 07:28:22;;;;;;;6.13;3.10;;;;;;;;;;5083886;28;20056;-64
2023/06/30 07:30:49;;;;;;;5.88;3.03;;;;;;;;;;5079395;28;20044;-63
2023/06/30 07:33:17;;;;;;;5.05;2.35;;;;;;;;;;5089775;28;20060;-63
2023/06/30 07:35:44;;;;;;;5.45;2.60;;;;;;;;;;5083683;28;20051;-62
2023/06/30 07:38:11;;;;;;;4.68;2.50;;;;;;;;;;5087931;28;20507;-63
2023/06/30 07:40:38;;;;;;;4.45;2.17;;;;;;;;;;5077621;28;20075;-62
2023/06/30 07:43:04;;;;;;;4.28;2.10;;;;;;;;;;5068754;28;20469;-63
2023/06/30 07:45:31;;;;;;;6.50;2.65;;;;;;;;;;5074041;28;20048;-62
2023/06/30 07:47:58;;;;;;;8.77;3.17;;;;;;;;;;5077691;28;20057;-61
2023/06/30 07:50:27;;;;;;;8.10;2.90;;;;;;;;;;5077137;28;20067;-61
2023/06/30 07:52:54;;;;;;;7.22;3.35;;;;;;;;;;5076825;28;20052;-61
2023/06/30 07:55:20;;;;;;;6.10;2.45;;;;;;;;;;5083593;28;20052;-61
2023/06/30 07:57:48;;;;;;;4.45;2.00;;;;;;;;;;5083147;28;20053;-62
2023/06/30 08:00:18;;;;;;;6.38;2.30;;;;;;;;;;5081021;28;20047;-61
2023/06/30 08:02:45;;;;;;;4.93;2.13;;;;;;;;;;5087073;28;20056;-62
2023/06/30 08:05:12;;;;;;;5.63;2.50;;;;;;;;;;5082094;28;20053;-61
2023/06/30 08:07:40;;;;;;;3.55;2.20;;;;;;;;;;5083261;28;20420;-61
2023/06/30 08:10:07;;;;;;;7.43;2.25;;;;;;;;;;5085596;28;20048;-61
2023/06/30 08:12:34;;;;;;;4.70;2.20;;;;;;;;;;5089809;28;20051;-61
2023/06/30 08:15:00;;;;;;;6.00;2.40;;;;;;;;;;5079101;28;20465;-62
2023/06/30 08:17:27;;;;;;;5.57;2.30;;;;;;;;;;5075925;28;20531;-61
2023/06/30 08:19:54;;;;;;;3.70;2.00;;;;;;;;;;5084191;28;20246;-62
2023/06/30 08:22:21;;;;;;;4.38;2.60;;;;;;;;;;5085741;28;20067;-62
2023/06/30 08:24:50;;;;;;;6.47;2.10;;;;;;;;;;5084764;28;21084;-62
2023/06/30 08:27:17;;;;;;;;;;;;;;;;;;5083097;28;20052;-62
2023/06/30 08:29:44;;;;;;;4.50;2.05;;;;;;;;;;5081394;28;19953;-62
2023/06/30 08:32:11;;;;;;;4.85;2.20;;;;;;;;;;5074697;28;20063;-62
2023/06/30 08:34:38;;;;;;;5.97;2.00;;;;;;;;;;5083781;28;20400;-62
2023/06/30 08:37:05;;;;;;;5.18;1.80;;;;;;;;;;5087995;28;20052;-62
2023/06/30 08:39:32;;;;;;;5.40;1.50;;;;;;;;;;5070988;28;20409;-62
2023/06/30 08:42:05;;;;;;;4.10;1.77;;;;;;;;;;5084945;28;20044;-63
2023/06/30 08:44:32;;;;;;;3.63;1.40;;;;;;;;;;5080024;28;20051;-62
2023/06/30 08:47:00;;;;;;;3.67;1.40;;;;;;;;;;5078853;28;20063;-63
2023/06/30 08:49:29;;;;;;;3.97;1.80;;;;;;;;;;5088206;28;20055;-62
2023/06/30 08:51:57;;;;;;;4.22;1.60;;;;;;;;;;5083681;28;20357;-63
2023/06/30 08:54:24;;;;;;;4.78;1.63;;;;;;;;;;5086772;28;20072;-63
2023/06/30 08:56:51;;;;;;;3.20;1.40;;;;;;;;;;5086641;28;20052;-63
2023/06/30 08:59:20;;;;;;;4.03;1.38;;;;;;;;;;5081523;28;20060;-62
2023/06/30 09:01:46;;;;;;;3.60;1.42;;;;;;;;;;5073713;28;20059;-62
2023/06/30 09:04:13;;;;;;;3.90;1.75;;;;;;;;;;5086561;28;20404;-63
2023/06/30 09:06:43;;;;;;;2.72;1.75;;;;;;;;;;5087360;28;20051;-63
2023/06/30 09:09:11;;;;;;;2.88;1.25;;;;;;;;;;5073186;28;20048;-62
2023/06/30 09:11:38;;;;;;;4.57;1.70;;;;;;;;;;5085678;28;20472;-62
2023/06/30 09:14:11;;;;;;;4.68;1.55;;;;;;;;;;5078554;28;20714;-63
2023/06/30 09:16:39;;;;;;;3.08;1.70;;;;;;;;;;5074472;28;20056;-63
2023/06/30 09:19:06;;;;;;;3.85;1.58;;;;;;;;;;5075804;28;20591;-63
2023/06/30 09:21:33;;;;;;;3.70;1.73;;;;;;;;;;5082851;28;20044;-63
2023/06/30 09:24:00;;;;;;;4.38;1.75;;;;;;;;;;5083029;28;20374;-63
2023/06/30 09:26:29;;;;;;;4.38;1.48;;;;;;;;;;5091593;28;20050;-63
2023/06/30 09:28:56;;;;;;;2.60;1.52;;;;;;;;;;5090518;28;20527;-63
2023/06/30 09:31:29;;;;;;;4.22;2.15;;;;;;;;;;5087284;28;20209;-63
2023/06/30 09:34:07;;;;;;;4.05;1.45;;;;;;;;;;5089749;28;20054;-63
2023/06/30 09:36:34;;;;;;;3.75;1.33;;;;;;;;;;5083754;28;20056;-63
2023/06/30 09:39:01;;;;;;;3.03;1.30;;;;;;;;;;5090696;28;20048;-63
2023/06/30 09:41:30;;;;;;;3.28;1.40;;;;;;;;;;5086082;28;20071;-63
2023/06/30 09:43:57;;;;;;;3.53;1.40;;;;;;;;;;5091142;28;20055;-63
2023/06/30 09:46:24;;;;;;;2.83;1.60;;;;;;;;;;5089005;28;20051;-63
2023/06/30 09:48:54;;;;;;;2.58;1.48;;;;;;;;;;5089683;28;20051;-63
2023/06/30 09:51:22;;;;;;;3.35;1.40;;;;;;;;;;5089894;28;20386;-63
2023/06/30 09:53:51;;;;;;;2.90;1.65;;;;;;;;;;5083639;28;20055;-63
2023/06/30 09:56:19;;;;;;;4.15;1.60;;;;;;;;;;5090296;28;20066;-63
2023/06/30 09:58:46;;;;;;;3.08;1.55;;;;;;;;;;5089066;28;20052;-63
2023/06/30 10:01:13;;;;;;;4.97;1.77;;;;;;;;;;5085124;28;20048;-65
2023/06/30 10:03:47;;;;;;;2.28;1.20;;;;;;;;;;5090672;28;20059;-64
2023/06/30 10:06:14;;;;;;;2.80;1.35;;;;;;;;;;5089948;28;20082;-64
2023/06/30 10:08:42;;;;;;;2.38;1.30;;;;;;;;;;5089279;28;20502;-64
2023/06/30 10:11:09;;;;;;;3.92;1.40;;;;;;;;;;5086089;28;20518;-64
2023/06/30 10:13:36;;;;;;;2.00;1.23;;;;;;;;;;5089037;28;20083;-65
2023/06/30 10:16:04;;;;;;;2.67;1.40;;;;;;;;;;5085255;28;20977;-65
2023/06/30 10:18:31;;;;;;;2.55;1.27;;;;;;;;;;5090487;28;20059;-67
2023/06/30 10:20:58;;;;;;;2.00;1.13;;;;;;;;;;5088346;28;20519;-63
2023/06/30 10:23:25;;;;;;;2.17;1.30;;;;;;;;;;5089678;28;20382;-63
2023/06/30 10:25:54;;;;;;;3.35;1.15;;;;;;;;;;5088426;28;20123;-63
2023/06/30 10:28:21;;;;;;;3.72;1.40;;;;;;;;;;5087078;28;20040;-63
2023/06/30 10:30:50;;;;;;;3.30;1.60;;;;;;;;;;5088250;28;20511;-63
2023/06/30 10:33:16;;;;;;;2.22;1.20;;;;;;;;;;5089091;28;20058;-63
2023/06/30 10:35:44;;;;;;;3.05;1.30;;;;;;;;;;5088356;28;20052;-63
2023/06/30 10:38:11;;;;;;;;;;;;;;;;;;5093636;28;20048;-63
2023/06/30 10:40:38;;;;;;;2.33;1.20;;;;;;;;;;5099799;28;19927;-63
2023/06/30 10:43:06;;;;;;;3.10;1.00;;;;;;;;;;5090456;28;20052;-63
2023/06/30 10:45:34;;;;;;;2.60;1.33;;;;;;;;;;5097217;28;20482;-63
2023/06/30 10:48:08;;;;;;;3.85;1.30;;;;;;;;;;5095676;28;20477;-63
2023/06/30 10:50:40;;;;;;;3.17;1.52;;;;;;;;;;5095178;28;20480;-63
2023/06/30 10:53:07;;;;;;;4.38;1.42;;;;;;;;;;5101570;28;20049;-63
2023/06/30 10:55:33;;;;;;;4.00;2.95;;;;;;;;;;5100597;28;20489;-63
2023/06/30 10:58:02;;;;;;;2.67;1.33;;;;;;;;;;5093437;28;20064;-63
2023/06/30 11:00:34;;;;;;;2.40;1.20;;;;;;;;;;5084836;28;20477;-63
2023/06/30 11:03:04;;;;;;;2.97;1.40;;;;;;;;;;5087134;28;20044;-63
2023/06/30 11:05:32;;;;;;;3.60;1.38;;;;;;;;;;5088944;28;20052;-63
2023/06/30 11:08:04;;;;;;;3.15;1.20;;;;;;;;;;5088905;28;20059;-63
2023/06/30 11:10:37;;;;;;;3.47;1.35;;;;;;;;;;5089246;28;20048;-63
2023/06/30 11:13:05;;;;;;;4.00;1.40;;;;;;;;;;5092406;28;20059;-63
2023/06/30 11:15:38;;;;;;;2.70;1.13;;;;;;;;;;5090638;28;20055;-64
2023/06/30 11:18:06;;;;;;;2.30;1.30;;;;;;;;;;5092942;28;20059;-63
2023/06/30 11:20:33;;;;;;;2.65;1.00;;;;;;;;;;5091569;28;20503;-64
2023/06/30 11:23:00;;;;;;;3.25;1.23;;;;;;;;;;5092590;28;20048;-64
2023/06/30 11:25:27;;;;;;;;;;;;;;;;;;5086810;28;20064;-63
2023/06/30 11:27:54;;;;;;;2.03;0.90;;;;;;;;;;5090757;28;19938;-64
2023/06/30 11:30:21;;;;;;;2.33;1.23;;;;;;;;;;5089749;28;20075;-64
2023/06/30 11:32:54;;;;;;;3.27;1.13;;;;;;;;;;5093548;28;20039;-64
2023/06/30 11:35:21;;;;;;;2.40;1.20;;;;;;;;;;5091724;28;20063;-63
2023/06/30 11:37:48;;;;;;;4.22;1.10;;;;;;;;;;5090886;28;20052;-64
2023/06/30 11:40:14;;;;;;;1.77;1.00;;;;;;;;;;5087804;28;20048;-63
2023/06/30 11:42:41;;;;;;;2.00;1.13;;;;;;;;;;5092901;28;20044;-64
2023/06/30 11:45:08;;;;;;;3.40;1.83;;;;;;;;;;5088983;28;20457;-63
2023/06/30 11:47:35;;;;;;;2.85;1.17;;;;;;;;;;5082090;28;20528;-64
2023/06/30 11:50:07;;;;;;;2.88;0.88;;;;;;;;;;5090951;28;20047;-64
2023/06/30 11:52:34;;;;;;;2.10;0.90;;;;;;;;;;5092787;28;20051;-63
2023/06/30 11:55:05;;;;;;;3.70;1.35;;;;;;;;;;5093794;28;20079;-63
2023/06/30 11:57:34;;;;;;;1.83;0.75;;;;;;;;;;5087038;28;20071;-64
2023/06/30 12:00:06;;;;;;;3.33;1.10;;;;;;;;;;5082169;28;20059;-63
2023/06/30 12:02:33;;;;;;;3.42;1.20;;;;;;;;;;5089728;28;20048;-63
2023/06/30 12:05:01;;;;;;;4.03;1.27;;;;;;;;;;5090437;28;20059;-63
2023/06/30 12:07:29;;;;;;;2.42;1.08;;;;;;;;;;5092975;28;20055;-63
2023/06/30 12:10:02;;;;;;;3.50;1.38;;;;;;;;;;5084681;28;20443;-63
2023/06/30 12:12:29;;;;;;;2.17;1.10;;;;;;;;;;5089313;28;20059;-63
2023/06/30 12:14:57;;;;;;;1.98;1.00;;;;;;;;;;5079896;28;20492;-64
2023/06/30 12:17:25;;;;;;;3.17;1.52;;;;;;;;;;5072916;28;20051;-63
2023/06/30 12:19:52;;;;;;;2.00;0.90;;;;;;;;;;5083948;28;20048;-64
2023/06/30 12:22:24;;;;;;;2.38;1.02;;;;;;;;;;5092341;28;20059;-63
2023/06/30 12:24:56;;;;;;;2.03;1.15;;;;;;;;;;5092771;28;20052;-62
2023/06/30 12:27:22;;;;;;;2.72;1.08;;;;;;;;;;5092321;28;20047;-63
2023/06/30 12:29:50;;;;;;;3.65;1.30;;;;;;;;;;5079223;28;20045;-63
2023/06/30 12:32:17;;;;;;;2.28;1.33;;;;;;;;;;5092015;28;20416;-63
2023/06/30 12:34:45;;;;;;;2.00;1.00;;;;;;;;;;5088074;28;20074;-62
2023/06/30 12:37:12;;;;;;;2.70;1.23;;;;;;;;;;5084282;28;20074;-63
2023/06/30 12:39:39;;;;;;;2.53;1.10;;;;;;;;;;5090955;28;20075;-63
2023/06/30 12:42:16;;;;;;;2.83;1.27;;;;;;;;;;5092107;28;20052;-63
2023/06/30 12:44:43;;;;;;;2.42;1.10;;;;;;;;;;5077291;28;20063;-64
2023/06/30 12:47:10;;;;;;;4.40;1.30;;;;;;;;;;5089315;28;20413;-64
2023/06/30 12:49:37;;;;;;;2.28;0.93;;;;;;;;;;5084153;28;20052;-63
2023/06/30 12:52:04;;;;;;;2.55;1.00;;;;;;;;;;5092139;28;20052;-63
2023/06/30 12:54:31;;;;;;;2.55;1.08;;;;;;;;;;5079692;28;20056;-63
2023/06/30 12:56:58;;;;;;;2.35;1.40;;;;;;;;;;5091780;28;20059;-64
2023/06/30 12:59:26;;;;;;;2.95;1.20;;;;;;;;;;5082164;28;20051;-64
2023/06/30 13:01:53;;;;;;;2.30;1.20;;;;;;;;;;5086741;28;20481;-65
2023/06/30 13:04:20;;;;;;;3.33;1.23;;;;;;;;;;5084662;28;20059;-65
2023/06/30 13:06:46;;;;;;;3.55;1.33;;;;;;;;;;5089670;28;20048;-64
2023/06/30 13:09:13;;;;;;;2.83;1.30;;;;;;;;;;5091916;28;20056;-64
2023/06/30 13:11:41;;;;;;;2.20;1.00;;;;;;;;;;5086039;28;20052;-64
2023/06/30 13:14:08;;;;;;;2.95;1.15;;;;;;;;;;5088326;28;20044;-64
2023/06/30 13:16:36;;;;;;;3.33;1.20;;;;;;;;;;5083565;28;20394;-64
2023/06/30 13:19:03;;;;;;;2.40;0.93;;;;;;;;;;5088494;28;20048;-64
2023/06/30 13:21:30;;;;;;;3.33;1.10;;;;;;;;;;5090704;28;20059;-64
2023/06/30 13:23:56;;;;;;;2.58;1.10;;;;;;;;;;5082288;28;20052;-64
2023/06/30 13:26:23;;;;;;;2.83;1.42;;;;;;;;;;5084188;28;20051;-64
2023/06/30 13:28:50;;;;;;;4.13;1.48;;;;;;;;;;5081949;28;20486;-64
2023/06/30 13:31:17;;;;;;;4.65;1.45;;;;;;;;;;5080002;28;20486;-63
2023/06/30 13:33:45;;;;;;;2.92;1.27;;;;;;;;;;5073193;28;20041;-63
2023/06/30 13:36:14;;;;;;;3.10;1.50;;;;;;;;;;5091972;28;20052;-63
2023/06/30 13:38:42;;;;;;;;;;;;;;;;;;5090046;28;20063;-64
2023/06/30 13:41:08;;;;;;;2.47;1.10;;;;;;;;;;5086282;28;19920;-64
2023/06/30 13:43:35;;;;;;;2.90;1.17;;;;;;;;;;5079107;28;20056;-63
2023/06/30 13:46:02;;;;;;;3.40;1.00;;;;;;;;;;5076886;28;20059;-63
2023/06/30 13:48:29;;;;;;;2.13;1.13;;;;;;;;;;5084643;28;20068;-64
2023/06/30 13:50:57;;;;;;;2.67;1.10;;;;;;;;;;5086424;28;20528;-63
2023/06/30 13:53:24;;;;;;;3.53;1.25;;;;;;;;;;5084639;28;20049;-63
2023/06/30 13:55:52;;;;;;;2.60;1.20;;;;;;;;;;5089667;28;20052;-63
2023/06/30 13:58:19;;;;;;;2.35;1.30;;;;;;;;;;5069685;28;20076;-63
2023/06/30 14:00:46;;;;;;;2.53;1.20;;;;;;;;;;5078204;28;20076;-63
2023/06/30 14:03:14;;;;;;;3.25;1.20;;;;;;;;;;5089841;28;20044;-63
2023/06/30 14:05:41;;;;;;;2.08;1.00;;;;;;;;;;5087001;28;20420;-63
2023/06/30 14:08:09;;;;;;;3.17;1.27;;;;;;;;;;5086017;28;20060;-63
2023/06/30 14:10:36;;;;;;;1.98;1.00;;;;;;;;;;5092005;28;20516;-63
2023/06/30 14:13:02;;;;;;;3.38;1.20;;;;;;;;;;5076292;28;20123;-63
2023/06/30 14:15:30;;;;;;;3.78;1.50;;;;;;;;;;5086044;28;20511;-63
2023/06/30 14:17:57;;;;;;;2.80;1.05;;;;;;;;;;5083090;28;20059;-63
2023/06/30 14:20:24;;;;;;;3.60;1.23;;;;;;;;;;5091372;28;20043;-64
2023/06/30 14:22:51;;;;;;;5.18;1.50;;;;;;;;;;5091464;28;20098;-64
2023/06/30 14:25:20;;;;;;;4.55;1.45;;;;;;;;;;5087521;28;20060;-64
2023/06/30 14:27:47;;;;;;;1.90;1.05;;;;;;;;;;5087171;28;20065;-64
2023/06/30 14:30:14;;;;;;;3.15;1.40;;;;;;;;;;5080470;28;20067;-64
2023/06/30 14:32:42;;;;;;;3.15;1.30;;;;;;;;;;5092947;28;20424;-63
2023/06/30 14:35:09;;;;;;;3.00;1.23;;;;;;;;;;5086523;28;20476;-64
2023/06/30 14:37:36;;;;;;;3.58;1.50;;;;;;;;;;5091299;28;20059;-64
2023/06/30 14:40:03;;;;;;;3.78;1.52;;;;;;;;;;5087392;28;20056;-64
2023/06/30 14:42:31;;;;;;;2.83;1.15;;;;;;;;;;5086855;28;20059;-63
2023/06/30 14:44:58;;;;;;;2.35;1.00;;;;;;;;;;5087342;28;20053;-64